Alma, Michigan
Current Conditions -  °F | °C
As of 4:33 PM on Saturday 20 Dec 2014 (Local Time) from KAMN Reporting Station
Scattered Clouds Scattered Clouds  
Wind Chill: 29°   Ceiling: Unl
Heat Index: 29°   Visibility: 10mi
Dew Point: 24°   Wind: 0mph
Humidity: 80%   Direction: NA
Pressure: 30.26"   Gusts: NA
Location:  43.38°N, 84.66°W
Report Text: KAMN 202133Z AUTO 00000KT 10SM SCT100 M02/M05 A3026 RMK AO2 T10161047
Loading
Personal Weather Stations






























Interactive Weather Map New forecast layout! Learn more

10-Day Weather Forecast

Advertisements
Track Severe Weather on mobile